createdAt,value
2022-11-13T00:00:37.498Z,10.34
2022-11-13T00:03:03.848Z,10.33
2022-11-13T00:05:30.228Z,10.31
2022-11-13T00:07:56.577Z,10.30
2022-11-13T00:10:23.477Z,10.29
2022-11-13T00:12:49.818Z,10.28
2022-11-13T00:15:16.299Z,10.28
2022-11-13T00:17:42.645Z,10.27
2022-11-13T00:20:09.177Z,10.27
2022-11-13T00:22:35.508Z,10.26
2022-11-13T00:25:01.902Z,10.25
2022-11-13T00:27:30.768Z,10.24
2022-11-13T00:29:57.207Z,10.21
2022-11-13T00:32:23.556Z,10.20
2022-11-13T00:34:49.892Z,10.18
2022-11-13T00:37:16.254Z,10.17
2022-11-13T00:39:42.591Z,10.16
2022-11-13T00:42:09.092Z,10.15
2022-11-13T00:44:35.453Z,10.13
2022-11-13T00:47:01.868Z,10.11
2022-11-13T00:49:28.461Z,10.11
2022-11-13T00:51:54.860Z,10.11
2022-11-13T00:54:21.445Z,10.10
2022-11-13T00:56:47.881Z,10.08
2022-11-13T00:59:14.251Z,10.08
2022-11-13T01:01:40.763Z,10.07
2022-11-13T01:04:07.163Z,10.06
2022-11-13T01:06:33.502Z,10.04
2022-11-13T01:09:00.120Z,10.02
2022-11-13T01:11:29.357Z,10.01
2022-11-13T01:13:56.175Z,9.97
2022-11-13T01:16:24.882Z,9.95
2022-11-13T01:18:55.249Z,9.92
2022-11-13T01:21:24.913Z,9.88
2022-11-13T01:23:51.473Z,9.85
2022-11-13T01:26:23.898Z,9.82
2022-11-13T01:28:50.549Z,9.78
2022-11-13T01:31:19.987Z,9.75
2022-11-13T01:33:48.049Z,9.72
2022-11-13T01:36:21.322Z,9.70
2022-11-13T01:38:48.171Z,9.65
2022-11-13T01:41:25.322Z,9.63
2022-11-13T01:43:54.453Z,9.60
2022-11-13T01:46:32.593Z,9.58
2022-11-13T01:49:08.002Z,9.55
2022-11-13T01:51:41.277Z,9.53
2022-11-13T01:54:12.993Z,9.52
2022-11-13T01:56:40.746Z,9.48
2022-11-13T01:59:13.027Z,9.47
2022-11-13T02:01:39.677Z,9.45
2022-11-13T02:04:06.091Z,9.42
2022-11-13T02:06:43.904Z,9.42
2022-11-13T02:09:12.597Z,9.41
2022-11-13T02:11:39.522Z,9.41
2022-11-13T02:14:08.461Z,9.43
2022-11-13T02:16:37.789Z,9.45
2022-11-13T02:19:10.265Z,9.47
2022-11-13T02:21:59.578Z,9.48
2022-11-13T02:24:29.590Z,9.49
2022-11-13T02:27:01.771Z,9.46
2022-11-13T02:29:28.101Z,9.46
2022-11-13T02:31:54.488Z,9.43
2022-11-13T02:34:20.878Z,9.42
2022-11-13T02:36:47.757Z,9.40
2022-11-13T02:39:14.608Z,9.38
2022-11-13T02:41:41.176Z,9.37
2022-11-13T02:44:08.330Z,9.35
2022-11-13T02:46:35.070Z,9.33
2022-11-13T02:49:01.535Z,9.31
2022-11-13T02:51:27.984Z,9.29
2022-11-13T02:53:54.927Z,9.27
2022-11-13T02:56:21.297Z,9.25
2022-11-13T02:58:47.840Z,9.22
2022-11-13T03:01:14.214Z,9.21
2022-11-13T03:03:57.103Z,9.20
2022-11-13T03:06:24.405Z,9.17
2022-11-13T03:08:50.766Z,9.15
2022-11-13T03:11:17.179Z,9.13
2022-11-13T03:13:43.529Z,9.10
2022-11-13T03:16:13.018Z,9.08
2022-11-13T03:18:39.680Z,9.05
2022-11-13T03:21:11.414Z,9.01
2022-11-13T03:23:38.684Z,8.98
2022-11-13T03:26:07.518Z,8.95
2022-11-13T03:28:34.981Z,8.93
2022-11-13T03:31:01.418Z,8.91
2022-11-13T03:33:27.917Z,8.90
2022-11-13T03:35:54.676Z,8.88
2022-11-13T03:38:21.325Z,8.86
2022-11-13T03:40:47.865Z,8.84
2022-11-13T03:43:14.299Z,8.81
2022-11-13T03:45:40.675Z,8.78
2022-11-13T03:48:07.093Z,8.75
2022-11-13T03:50:33.514Z,8.72
2022-11-13T03:52:59.929Z,8.71
2022-11-13T03:55:26.327Z,8.67
2022-11-13T03:57:52.651Z,8.66
2022-11-13T04:00:19.021Z,8.64
2022-11-13T04:02:45.354Z,8.61
2022-11-13T04:05:11.801Z,8.59
2022-11-13T04:07:38.145Z,8.55
2022-11-13T04:10:05.111Z,8.54
2022-11-13T04:12:31.481Z,8.50
2022-11-13T04:14:57.836Z,8.47
2022-11-13T04:17:24.241Z,8.45
2022-11-13T04:19:50.661Z,8.41
2022-11-13T04:22:17.147Z,8.36
2022-11-13T04:24:43.514Z,8.33
2022-11-13T04:27:09.925Z,8.30
2022-11-13T04:29:36.303Z,8.27
2022-11-13T04:32:02.644Z,8.25
2022-11-13T04:34:28.973Z,8.21
2022-11-13T04:36:55.537Z,8.17
2022-11-13T04:39:21.885Z,8.14
2022-11-13T04:42:06.945Z,8.11
2022-11-13T04:44:33.351Z,8.06
2022-11-13T04:46:59.673Z,8.03
2022-11-13T04:49:26.045Z,7.97
2022-11-13T04:51:52.377Z,7.94
2022-11-13T04:54:18.825Z,7.89
2022-11-13T04:56:45.374Z,7.86
2022-11-13T04:59:11.798Z,7.83
2022-11-13T05:01:38.522Z,7.79
2022-11-13T05:04:05.319Z,7.76
2022-11-13T05:06:31.725Z,7.75
2022-11-13T05:08:58.227Z,7.72
2022-11-13T05:11:24.545Z,7.71
2022-11-13T05:13:50.893Z,7.69
2022-11-13T05:16:17.304Z,7.67
2022-11-13T05:18:43.641Z,7.66
2022-11-13T05:21:10.072Z,7.64
2022-11-13T05:23:36.810Z,7.62
2022-11-13T05:26:11.717Z,7.60
2022-11-13T05:28:39.203Z,7.59
2022-11-13T05:31:07.714Z,7.58
2022-11-13T05:33:34.884Z,7.58
2022-11-13T05:36:06.749Z,7.60
2022-11-13T05:38:34.063Z,7.61
2022-11-13T05:41:05.600Z,7.65
2022-11-13T05:43:32.563Z,7.66
2022-11-13T05:46:12.278Z,7.70
2022-11-13T05:48:39.518Z,7.74
2022-11-13T05:51:08.890Z,7.77
2022-11-13T05:53:36.574Z,7.81
2022-11-13T05:56:06.099Z,7.85
2022-11-13T05:58:32.989Z,7.89
2022-11-13T06:01:30.257Z,7.96
2022-11-13T06:03:57.893Z,7.99
2022-11-13T06:06:25.837Z,8.03
2022-11-13T06:08:54.269Z,8.07
2022-11-13T06:11:23.342Z,8.08
2022-11-13T06:13:51.197Z,8.10
2022-11-13T06:16:23.490Z,8.10
2022-11-13T06:18:50.888Z,8.07
2022-11-13T06:21:20.579Z,8.06
2022-11-13T06:23:47.330Z,8.02
2022-11-13T06:26:22.649Z,7.98
2022-11-13T06:28:49.113Z,7.95
2022-11-13T06:31:21.995Z,7.90
2022-11-13T06:33:48.810Z,7.84
2022-11-13T06:36:18.574Z,7.78
2022-11-13T06:38:45.181Z,7.73
2022-11-13T06:41:13.604Z,7.67
2022-11-13T06:43:40.356Z,7.62
2022-11-13T06:46:10.541Z,7.58
2022-11-13T06:48:37.033Z,7.54
2022-11-13T06:51:15.354Z,7.48
2022-11-13T06:53:42.382Z,7.45
2022-11-13T06:56:09.658Z,7.42
2022-11-13T06:58:36.155Z,7.39
2022-11-13T07:01:10.675Z,7.37
2022-11-13T07:03:37.511Z,7.35
2022-11-13T07:06:05.726Z,7.34
2022-11-13T07:08:32.391Z,7.33
2022-11-13T07:10:59.213Z,7.33
2022-11-13T07:13:27.262Z,7.34
2022-11-13T07:15:54.009Z,7.36
2022-11-13T07:18:24.162Z,7.36
2022-11-13T07:20:50.810Z,7.38
2022-11-13T07:23:17.179Z,7.40
2022-11-13T07:25:43.521Z,7.42
2022-11-13T07:28:09.953Z,7.44
2022-11-13T07:30:36.279Z,7.47
2022-11-13T07:33:04.306Z,7.51
2022-11-13T07:35:31.035Z,7.55
2022-11-13T07:37:58.005Z,7.60
2022-11-13T07:40:24.596Z,7.65
2022-11-13T07:43:01.928Z,7.73
2022-11-13T07:45:29.161Z,7.78
2022-11-13T07:47:59.938Z,7.85
2022-11-13T07:50:31.042Z,7.90
2022-11-13T07:53:03.407Z,7.99
2022-11-13T07:55:30.153Z,8.05
2022-11-13T07:57:58.498Z,8.11
2022-11-13T08:00:29.367Z,8.20
2022-11-13T08:02:56.226Z,8.27
2022-11-13T08:05:23.274Z,8.34
2022-11-13T08:07:51.666Z,8.43
2022-11-13T08:10:19.982Z,8.50
2022-11-13T08:12:47.312Z,8.57
2022-11-13T08:15:16.926Z,8.64
2022-11-13T08:17:43.306Z,8.70
2022-11-13T08:20:10.393Z,8.77
2022-11-13T08:22:36.721Z,8.86
2022-11-13T08:25:03.682Z,8.93
2022-11-13T08:27:30.177Z,9.01
2022-11-13T08:29:56.501Z,9.11
2022-11-13T08:32:22.858Z,9.22
2022-11-13T08:34:49.447Z,9.32
2022-11-13T08:37:16.041Z,9.45
2022-11-13T08:39:42.434Z,9.58
2022-11-13T08:42:08.766Z,9.75
2022-11-13T08:44:35.129Z,9.91
2022-11-13T08:47:01.518Z,10.10
2022-11-13T08:49:27.862Z,10.28
2022-11-13T08:51:54.198Z,10.47
2022-11-13T08:54:20.874Z,10.67
2022-11-13T08:56:54.468Z,10.86
2022-11-13T08:59:23.693Z,11.06
2022-11-13T09:01:50.458Z,11.22
2022-11-13T09:04:16.793Z,11.38
2022-11-13T09:06:43.198Z,11.54
2022-11-13T09:09:09.633Z,11.68
2022-11-13T09:11:36.172Z,11.80
2022-11-13T09:14:02.550Z,11.95
2022-11-13T09:16:29.091Z,12.07
2022-11-13T09:18:55.500Z,12.19
2022-11-13T09:21:21.837Z,12.32
2022-11-13T09:23:48.159Z,12.42
2022-11-13T09:26:14.546Z,12.55
2022-11-13T09:28:40.877Z,12.66
2022-11-13T09:31:07.599Z,12.78
2022-11-13T09:33:34.241Z,12.88
2022-11-13T09:36:00.811Z,13.00
2022-11-13T09:38:29.810Z,13.11
2022-11-13T09:41:04.796Z,13.23
2022-11-13T09:43:36.666Z,13.34
2022-11-13T09:46:08.726Z,13.44
2022-11-13T09:48:41.697Z,13.53
2022-11-13T09:51:29.554Z,13.65
2022-11-13T09:53:56.213Z,13.74
2022-11-13T09:56:28.119Z,13.85
2022-11-13T09:59:23.817Z,13.97
2022-11-13T10:02:28.782Z,14.12
2022-11-13T10:05:13.454Z,14.25
2022-11-13T10:07:48.516Z,14.35
2022-11-13T10:10:33.296Z,14.47
2022-11-13T10:13:00.824Z,14.58
2022-11-13T10:15:27.772Z,14.68
2022-11-13T10:18:00.440Z,14.79
2022-11-13T10:20:55.642Z,14.91
2022-11-13T10:23:28.095Z,15.05
2022-11-13T10:25:58.353Z,15.14
2022-11-13T10:28:49.562Z,15.25
2022-11-13T10:31:14.401Z,15.36
2022-11-13T10:33:40.730Z,15.46
2022-11-13T10:36:28.551Z,15.58
2022-11-13T10:39:02.896Z,15.68
2022-11-13T10:41:29.414Z,15.75
2022-11-13T10:44:04.419Z,15.89
2022-11-13T10:46:31.593Z,15.97
2022-11-13T10:48:58.669Z,16.06
2022-11-13T10:51:28.777Z,16.16
2022-11-13T10:53:55.782Z,16.23
2022-11-13T10:56:26.423Z,16.32
2022-11-13T10:59:11.434Z,16.42
2022-11-13T11:01:38.913Z,16.49
2022-11-13T11:04:21.493Z,16.59
2022-11-13T11:07:18.419Z,16.65
2022-11-13T11:09:38.367Z,16.76
2022-11-13T11:12:17.208Z,16.81
2022-11-13T11:14:58.976Z,16.91
2022-11-13T11:17:51.347Z,16.99
2022-11-13T11:20:35.593Z,17.06
2022-11-13T11:23:37.134Z,17.14
2022-11-13T11:26:13.767Z,17.21
2022-11-13T11:29:00.311Z,17.26
2022-11-13T11:31:41.975Z,17.34
2022-11-13T11:34:42.001Z,17.40
2022-11-13T11:37:19.421Z,17.44
2022-11-13T11:39:54.813Z,17.50
2022-11-13T11:42:26.701Z,17.55
2022-11-13T11:45:16.233Z,17.62
2022-11-13T11:47:43.427Z,17.63
2022-11-13T11:50:14.630Z,17.68
2022-11-13T11:52:56.508Z,17.74
2022-11-13T11:55:37.298Z,17.80
2022-11-13T11:58:29.154Z,17.86
2022-11-13T12:01:05.816Z,17.92
2022-11-13T12:03:38.096Z,17.96
2022-11-13T12:06:26.415Z,18.03
2022-11-13T12:09:10.162Z,18.09
2022-11-13T12:11:51.440Z,18.13
2022-11-13T12:14:48.212Z,18.17
2022-11-13T12:17:38.124Z,18.19
2022-11-13T12:20:26.368Z,18.21
2022-11-13T12:23:11.004Z,18.22
2022-11-13T12:25:53.028Z,18.23
2022-11-13T12:28:42.860Z,18.23
2022-11-13T12:31:39.268Z,18.23
2022-11-13T12:34:29.827Z,18.24
2022-11-13T12:36:58.414Z,18.24
2022-11-13T12:39:40.910Z,18.27
2022-11-13T12:42:29.328Z,18.28
2022-11-13T12:45:16.727Z,18.30
2022-11-13T12:47:43.377Z,18.31
2022-11-13T12:50:32.212Z,18.33
2022-11-13T12:53:11.133Z,18.36
2022-11-13T12:55:39.667Z,18.38
2022-11-13T12:58:09.465Z,18.40
2022-11-13T13:00:41.181Z,18.42
2022-11-13T13:03:21.453Z,18.44
2022-11-13T13:06:03.142Z,18.45
2022-11-13T13:08:47.873Z,18.48
2022-11-13T13:11:23.135Z,18.52
2022-11-13T13:14:04.101Z,18.54
2022-11-13T13:16:30.514Z,18.57
2022-11-13T13:19:32.549Z,18.60
2022-11-13T13:21:59.052Z,18.61
2022-11-13T13:24:37.166Z,18.65
2022-11-13T13:27:22.040Z,18.65
2022-11-13T13:29:48.374Z,18.65
2022-11-13T13:32:23.630Z,18.67
2022-11-13T13:34:59.328Z,18.68
2022-11-13T13:37:38.292Z,18.68
2022-11-13T13:40:13.671Z,18.69
2022-11-13T13:42:58.398Z,18.68
2022-11-13T13:45:43.214Z,18.65
2022-11-13T13:48:12.389Z,18.65
2022-11-13T13:50:44.406Z,18.63
2022-11-13T13:53:15.155Z,18.63
2022-11-13T13:55:48.643Z,18.61
2022-11-13T13:58:19.280Z,18.58
2022-11-13T14:01:17.049Z,18.57
2022-11-13T14:03:42.505Z,18.59
2022-11-13T14:06:29.195Z,18.57
2022-11-13T14:08:55.565Z,18.52
2022-11-13T14:11:29.387Z,18.48
2022-11-13T14:14:07.002Z,18.42
2022-11-13T14:16:33.713Z,18.38
2022-11-13T14:19:05.205Z,18.34
2022-11-13T14:21:31.873Z,18.29
2022-11-13T14:24:02.368Z,18.28
2022-11-13T14:26:29.505Z,18.23
2022-11-13T14:28:59.966Z,18.20
2022-11-13T14:31:30.178Z,18.15
2022-11-13T14:34:00.066Z,18.11
2022-11-13T14:36:31.409Z,18.07
2022-11-13T14:38:59.019Z,18.04
2022-11-13T14:41:34.181Z,17.97
2022-11-13T14:44:00.678Z,17.91
2022-11-13T14:46:45.698Z,17.87
2022-11-13T14:49:15.301Z,17.81
2022-11-13T14:51:41.889Z,17.73
2022-11-13T14:54:33.822Z,17.67
2022-11-13T14:57:10.613Z,17.59
2022-11-13T14:59:38.402Z,17.50
2022-11-13T15:02:05.163Z,17.39
2022-11-13T15:04:35.266Z,17.29
2022-11-13T15:07:26.693Z,17.18
2022-11-13T15:09:53.486Z,17.05
2022-11-13T15:12:19.920Z,16.93
2022-11-13T15:14:46.309Z,16.82
2022-11-13T15:17:16.673Z,16.72
2022-11-13T15:19:43.607Z,16.59
2022-11-13T15:22:26.711Z,16.49
2022-11-13T15:24:54.308Z,16.35
2022-11-13T15:27:20.725Z,16.20
2022-11-13T15:29:47.069Z,16.08
2022-11-13T15:32:15.183Z,15.96
2022-11-13T15:34:41.908Z,15.84
2022-11-13T15:37:11.680Z,15.72
2022-11-13T15:39:38.045Z,15.59
2022-11-13T15:42:07.897Z,15.51
2022-11-13T15:44:34.214Z,15.37
2022-11-13T15:47:00.675Z,15.27
2022-11-13T15:49:27.535Z,15.16
2022-11-13T15:51:53.905Z,15.05
2022-11-13T15:54:33.447Z,14.95
2022-11-13T15:56:59.978Z,14.83
2022-11-13T15:59:26.336Z,14.73
2022-11-13T16:01:56.942Z,14.63
2022-11-13T16:04:26.720Z,14.54
2022-11-13T16:07:17.592Z,14.45
2022-11-13T16:09:45.202Z,14.35
2022-11-13T16:12:12.843Z,14.26
2022-11-13T16:14:40.214Z,14.19
2022-11-13T16:17:20.829Z,14.10
2022-11-13T16:19:53.045Z,14.00
2022-11-13T16:22:24.389Z,13.93
2022-11-13T16:24:50.745Z,13.84
2022-11-13T16:27:29.179Z,13.77
2022-11-13T16:29:55.631Z,13.70
2022-11-13T16:32:22.390Z,13.60
2022-11-13T16:34:49.106Z,13.54
2022-11-13T16:37:20.438Z,13.49
2022-11-13T16:39:47.015Z,13.42
2022-11-13T16:42:14.682Z,13.35
2022-11-13T16:44:41.458Z,13.29
2022-11-13T16:47:20.916Z,13.23
2022-11-13T16:49:47.390Z,13.15
2022-11-13T16:52:13.727Z,13.07
2022-11-13T16:54:40.097Z,12.98
2022-11-13T16:57:08.768Z,12.92
2022-11-13T16:59:35.099Z,12.83
2022-11-13T17:02:01.687Z,12.76
2022-11-13T17:04:28.240Z,12.66
2022-11-13T17:06:57.760Z,12.59
2022-11-13T17:09:24.418Z,12.50
2022-11-13T17:11:50.885Z,12.41
2022-11-13T17:14:17.298Z,12.33
2022-11-13T17:16:43.673Z,12.25
2022-11-13T17:19:13.651Z,12.16
2022-11-13T17:21:44.125Z,12.05
2022-11-13T17:24:10.943Z,11.95
2022-11-13T17:26:37.274Z,11.85
2022-11-13T17:29:05.669Z,11.74
2022-11-13T17:31:32.317Z,11.63
2022-11-13T17:33:58.738Z,11.53
2022-11-13T17:36:25.224Z,11.43
2022-11-13T17:38:51.614Z,11.33
2022-11-13T17:41:18.129Z,11.21
2022-11-13T17:43:44.637Z,11.09
2022-11-13T17:46:14.416Z,10.97
2022-11-13T17:48:41.628Z,10.86
2022-11-13T17:51:12.121Z,10.76
2022-11-13T17:53:38.534Z,10.66
2022-11-13T17:56:08.048Z,10.55
2022-11-13T17:58:41.534Z,10.45
2022-11-13T18:01:11.190Z,10.36
2022-11-13T18:03:38.153Z,10.28
2022-11-13T18:06:11.219Z,10.22
2022-11-13T18:08:41.313Z,10.15
2022-11-13T18:11:15.550Z,10.09
2022-11-13T18:13:43.017Z,10.04
2022-11-13T18:16:12.808Z,9.99
2022-11-13T18:18:39.433Z,9.94
2022-11-13T18:21:22.420Z,9.89
2022-11-13T18:23:55.383Z,9.81
2022-11-13T18:26:21.706Z,9.75
2022-11-13T18:28:48.060Z,9.68
2022-11-13T18:31:17.728Z,9.62
2022-11-13T18:33:44.748Z,9.54
2022-11-13T18:36:11.421Z,9.48
2022-11-13T18:38:37.910Z,9.41
2022-11-13T18:41:18.586Z,9.35
2022-11-13T18:43:46.653Z,9.31
2022-11-13T18:46:14.575Z,9.26
2022-11-13T18:48:43.717Z,9.22
2022-11-13T18:51:14.814Z,9.18
2022-11-13T18:53:43.645Z,9.15
2022-11-13T18:56:34.441Z,9.13
2022-11-13T18:59:00.878Z,9.10
2022-11-13T19:01:30.847Z,9.08
2022-11-13T19:04:21.762Z,9.05
2022-11-13T19:06:49.325Z,9.02
2022-11-13T19:09:16.945Z,8.99
2022-11-13T19:11:43.751Z,8.97
2022-11-13T19:14:13.822Z,8.94
2022-11-13T19:16:40.275Z,8.92
2022-11-13T19:19:19.683Z,8.88
2022-11-13T19:21:46.615Z,8.86
2022-11-13T19:24:14.647Z,8.83
2022-11-13T19:26:42.441Z,8.79
2022-11-13T19:29:08.857Z,8.77
2022-11-13T19:31:35.350Z,8.77
2022-11-13T19:34:04.729Z,8.76
2022-11-13T19:36:32.062Z,8.75
2022-11-13T19:38:59.079Z,8.76
2022-11-13T19:41:27.922Z,8.76
2022-11-13T19:43:55.093Z,8.76
2022-11-13T19:46:21.696Z,8.76
2022-11-13T19:48:49.544Z,8.74
2022-11-13T19:51:19.174Z,8.73
2022-11-13T19:53:46.342Z,8.72
2022-11-13T19:56:23.134Z,8.70
2022-11-13T19:58:51.198Z,8.66
2022-11-13T20:01:23.421Z,8.64
2022-11-13T20:03:54.634Z,8.60
2022-11-13T20:06:21.577Z,8.55
2022-11-13T20:08:48.177Z,8.52
2022-11-13T20:11:18.063Z,8.49
2022-11-13T20:13:44.741Z,8.44
2022-11-13T20:16:14.041Z,8.41
2022-11-13T20:18:42.448Z,8.38
2022-11-13T20:21:09.582Z,8.33
2022-11-13T20:23:36.549Z,8.30
2022-11-13T20:26:05.935Z,8.29
2022-11-13T20:28:32.652Z,8.24
2022-11-13T20:31:02.975Z,8.21
2022-11-13T20:33:34.599Z,8.19
2022-11-13T20:36:02.469Z,8.15
2022-11-13T20:38:29.752Z,8.13
2022-11-13T20:40:56.391Z,8.11
2022-11-13T20:43:22.987Z,8.08
2022-11-13T20:45:49.667Z,8.08
2022-11-13T20:48:16.111Z,8.05
2022-11-13T20:50:42.568Z,8.03
2022-11-13T20:53:09.162Z,8.02
2022-11-13T20:55:35.552Z,8.00
2022-11-13T20:58:04.297Z,7.99
2022-11-13T21:00:31.043Z,7.99
2022-11-13T21:05:38.903Z,7.96
2022-11-13T21:08:05.433Z,7.93
2022-11-13T21:10:33.573Z,7.93
2022-11-13T21:13:00.033Z,7.88
2022-11-13T21:15:26.480Z,7.85
2022-11-13T21:17:53.015Z,7.85
2022-11-13T21:20:19.463Z,7.83
2022-11-13T21:22:45.886Z,7.82
2022-11-13T21:25:12.424Z,7.82
2022-11-13T21:27:38.844Z,7.82
2022-11-13T21:30:05.961Z,7.81
2022-11-13T21:32:32.436Z,7.81
2022-11-13T21:35:34.604Z,7.81
2022-11-13T21:38:05.234Z,7.81
2022-11-13T21:40:31.653Z,7.79
2022-11-13T21:42:58.050Z,7.78
2022-11-13T21:45:24.505Z,7.76
2022-11-13T21:47:52.648Z,7.76
2022-11-13T21:50:19.130Z,7.76
2022-11-13T21:52:45.551Z,7.77
2022-11-13T21:55:11.936Z,7.78
2022-11-13T21:57:38.245Z,7.78
2022-11-13T22:00:05.410Z,7.79
2022-11-13T22:02:31.897Z,7.80
2022-11-13T22:04:58.269Z,7.80
2022-11-13T22:07:24.792Z,7.80
2022-11-13T22:09:51.149Z,7.79
2022-11-13T22:12:17.465Z,7.79
2022-11-13T22:14:43.849Z,7.79
2022-11-13T22:17:10.216Z,7.78
2022-11-13T22:19:36.721Z,7.80
2022-11-13T22:22:03.278Z,7.81
2022-11-13T22:24:30.698Z,7.82
2022-11-13T22:26:57.095Z,7.83
2022-11-13T22:29:23.458Z,7.83
2022-11-13T22:31:49.807Z,7.83
2022-11-13T22:34:16.145Z,7.85
2022-11-13T22:36:42.490Z,7.84
2022-11-13T22:39:08.920Z,7.84
2022-11-13T22:41:36.423Z,7.84
2022-11-13T22:44:11.528Z,7.84
2022-11-13T22:46:38.143Z,7.84
2022-11-13T22:49:05.984Z,7.84
2022-11-13T22:51:38.455Z,7.82
2022-11-13T22:54:14.097Z,7.82
2022-11-13T22:56:41.272Z,7.80
2022-11-13T22:59:10.879Z,7.79
2022-11-13T23:01:38.772Z,7.77
2022-11-13T23:04:07.870Z,7.75
2022-11-13T23:06:35.508Z,7.75
2022-11-13T23:09:03.336Z,7.73
2022-11-13T23:11:33.168Z,7.71
2022-11-13T23:14:02.156Z,7.68
2022-11-13T23:16:30.065Z,7.68
2022-11-13T23:18:58.250Z,7.65
2022-11-13T23:21:26.241Z,7.63
2022-11-13T23:23:53.656Z,7.63
2022-11-13T23:26:20.901Z,7.60
2022-11-13T23:28:47.392Z,7.58
2022-11-13T23:31:13.889Z,7.55
2022-11-13T23:33:40.881Z,7.53
2022-11-13T23:36:09.393Z,7.53
2022-11-13T23:38:36.149Z,7.50
2022-11-13T23:41:02.697Z,7.49
2022-11-13T23:43:54.197Z,7.46
2022-11-13T23:46:16.662Z,7.45
2022-11-13T23:48:43.019Z,7.45
2022-11-13T23:51:09.362Z,7.43
2022-11-13T23:53:35.818Z,7.42
2022-11-13T23:56:02.212Z,7.41
2022-11-13T23:58:29.006Z,7.40
